createdAt,value
2023-02-11T00:01:45.792Z,15.83
2023-02-11T00:04:20.507Z,12.67
2023-02-11T00:06:48.763Z,14.63
2023-02-11T00:09:23.477Z,12.20
2023-02-11T00:11:58.525Z,13.67
2023-02-11T00:14:34.486Z,11.07
2023-02-11T00:17:02.697Z,13.23
2023-02-11T00:19:37.496Z,11.50
2023-02-11T00:22:05.862Z,12.67
2023-02-11T00:24:40.488Z,14.50
2023-02-11T00:27:08.690Z,10.67
2023-02-11T00:29:45.495Z,14.53
2023-02-11T00:32:14.025Z,12.50
2023-02-11T00:34:48.513Z,12.80
2023-02-11T00:37:17.727Z,10.67
2023-02-11T00:39:52.583Z,11.97
2023-02-11T00:42:21.291Z,13.50
2023-02-11T00:44:57.514Z,11.70
2023-02-11T00:47:25.855Z,10.63
2023-02-11T00:50:00.562Z,12.67
2023-02-11T00:52:28.779Z,13.10
2023-02-11T00:55:03.515Z,12.47
2023-02-11T00:57:31.786Z,15.73
2023-02-11T01:00:07.510Z,15.67
2023-02-11T01:02:35.856Z,11.77
2023-02-11T01:05:11.625Z,10.83
2023-02-11T01:07:39.834Z,10.60
2023-02-11T01:10:14.563Z,8.63
2023-02-11T01:12:49.763Z,10.60
2023-02-11T01:15:27.633Z,10.30
2023-02-11T01:17:55.944Z,11.37
2023-02-11T01:20:32.556Z,12.07
2023-02-11T01:23:00.819Z,10.53
2023-02-11T01:25:35.549Z,13.60
2023-02-11T01:28:03.838Z,12.70
2023-02-11T01:30:40.608Z,13.30
2023-02-11T01:33:08.889Z,12.03
2023-02-11T01:35:43.570Z,13.53
2023-02-11T01:38:17.650Z,13.23
2023-02-11T01:40:55.577Z,13.97
2023-02-11T01:43:24.080Z,16.83
2023-02-11T01:46:08.580Z,11.97
2023-02-11T01:48:40.467Z,10.73
2023-02-11T01:51:20.594Z,13.40
2023-02-11T01:54:15.599Z,14.67
2023-02-11T01:57:05.784Z,12.10
2023-02-11T01:59:43.635Z,8.67
2023-02-11T02:02:17.126Z,14.20
2023-02-11T02:04:58.748Z,13.10
2023-02-11T02:07:33.810Z,15.67
2023-02-11T02:10:21.584Z,12.33
2023-02-11T02:12:49.911Z,14.47
2023-02-11T02:15:37.588Z,17.93
2023-02-11T02:18:21.594Z,12.90
2023-02-11T02:21:24.596Z,12.80
2023-02-11T02:24:31.358Z,15.17
2023-02-11T02:27:37.635Z,16.77
2023-02-11T02:30:48.652Z,9.50
2023-02-11T02:33:51.654Z,10.47
2023-02-11T02:36:24.784Z,11.73
2023-02-11T02:39:04.624Z,11.33
2023-02-11T02:41:35.515Z,13.87
2023-02-11T02:44:10.607Z,12.40
2023-02-11T02:46:38.951Z,11.07
2023-02-11T02:49:21.595Z,11.83
2023-02-11T02:52:26.044Z,11.50
2023-02-11T02:55:38.639Z,14.13
2023-02-11T02:58:26.523Z,10.67
2023-02-11T03:01:10.747Z,12.33
2023-02-11T03:03:49.868Z,16.03
2023-02-11T03:06:32.619Z,12.23
2023-02-11T03:09:11.950Z,12.10
2023-02-11T03:11:53.647Z,11.27
2023-02-11T03:14:23.220Z,12.30
2023-02-11T03:16:59.668Z,12.93
2023-02-11T03:19:31.317Z,16.70
2023-02-11T03:22:10.668Z,16.10
2023-02-11T03:24:41.856Z,17.47
2023-02-11T03:27:24.662Z,10.53
2023-02-11T03:29:56.531Z,19.00
2023-02-11T03:32:35.671Z,15.60
2023-02-11T03:35:11.661Z,15.53
2023-02-11T03:37:51.717Z,13.20
2023-02-11T03:40:23.185Z,14.17
2023-02-11T03:43:01.665Z,11.00
2023-02-11T03:45:30.583Z,15.80
2023-02-11T03:48:10.671Z,15.83
2023-02-11T03:50:40.267Z,12.97
2023-02-11T03:53:17.677Z,10.93
2023-02-11T03:55:47.273Z,12.47
2023-02-11T03:58:21.690Z,15.10
2023-02-11T04:00:50.223Z,14.53
2023-02-11T04:03:25.803Z,15.03
2023-02-11T04:05:54.217Z,10.53
2023-02-11T04:08:30.692Z,13.53
2023-02-11T04:11:05.982Z,13.30
2023-02-11T04:13:47.699Z,12.40
2023-02-11T04:16:16.062Z,14.07
2023-02-11T04:18:50.707Z,14.10
2023-02-11T04:21:18.983Z,15.37
2023-02-11T04:23:54.731Z,11.87
2023-02-11T04:26:22.993Z,11.83
2023-02-11T04:28:57.701Z,13.40
2023-02-11T04:31:25.985Z,10.77
2023-02-11T04:34:00.721Z,15.47
2023-02-11T04:36:28.948Z,13.50
2023-02-11T04:39:04.716Z,12.07
2023-02-11T04:41:33.299Z,15.67
2023-02-11T04:44:07.717Z,15.27
2023-02-11T04:46:35.967Z,14.73
2023-02-11T04:49:11.754Z,12.07
2023-02-11T04:51:39.893Z,13.73
2023-02-11T04:54:16.721Z,11.97
2023-02-11T04:56:45.121Z,14.37
2023-02-11T04:59:20.732Z,13.67
2023-02-11T05:01:49.602Z,12.97
2023-02-11T05:04:24.797Z,15.93
2023-02-11T05:06:53.207Z,11.27
2023-02-11T05:09:29.740Z,14.50
2023-02-11T05:12:03.949Z,14.13
2023-02-11T05:14:38.776Z,15.03
2023-02-11T05:17:07.114Z,13.87
2023-02-11T05:19:42.054Z,12.67
2023-02-11T05:22:10.316Z,17.27
2023-02-11T05:24:46.791Z,14.70
2023-02-11T05:27:15.187Z,18.20
2023-02-11T05:29:49.785Z,12.93
2023-02-11T05:32:17.960Z,13.17
2023-02-11T05:34:52.772Z,16.47
2023-02-11T05:37:21.101Z,16.87
2023-02-11T05:39:57.789Z,15.70
2023-02-11T05:42:26.010Z,15.70
2023-02-11T05:45:00.769Z,16.97
2023-02-11T05:47:29.111Z,17.80
2023-02-11T05:50:03.786Z,18.57
2023-02-11T05:52:31.946Z,18.50
2023-02-11T05:55:07.804Z,24.03
2023-02-11T05:57:36.219Z,18.13
2023-02-11T06:00:12.907Z,16.27
2023-02-11T06:02:41.199Z,21.97
2023-02-11T06:05:16.798Z,14.93
2023-02-11T06:07:45.113Z,20.40
2023-02-11T06:10:21.787Z,17.13
2023-02-11T06:13:04.062Z,19.00
2023-02-11T06:15:38.845Z,21.93
2023-02-11T06:18:07.496Z,21.37
2023-02-11T06:20:41.829Z,16.53
2023-02-11T06:23:10.258Z,16.50
2023-02-11T06:25:46.799Z,22.10
2023-02-11T06:28:15.074Z,19.90
2023-02-11T06:30:49.926Z,19.03
2023-02-11T06:33:18.435Z,20.03
2023-02-11T06:35:53.082Z,19.40
2023-02-11T06:38:21.432Z,19.27
2023-02-11T06:40:57.849Z,19.47
2023-02-11T06:43:26.311Z,23.40
2023-02-11T06:46:01.820Z,18.17
2023-02-11T06:48:30.023Z,18.77
2023-02-11T06:51:04.760Z,21.10
2023-02-11T06:53:33.289Z,22.67
2023-02-11T06:56:13.064Z,21.33
2023-02-11T06:58:41.607Z,18.77
2023-02-11T07:01:17.842Z,19.07
2023-02-11T07:03:46.826Z,22.23
2023-02-11T07:06:23.841Z,20.33
2023-02-11T07:08:52.275Z,22.43
2023-02-11T07:11:31.855Z,21.57
2023-02-11T07:14:03.249Z,19.73
2023-02-11T07:16:38.882Z,25.90
2023-02-11T07:19:07.141Z,20.43
2023-02-11T07:21:41.887Z,22.57
2023-02-11T07:24:11.405Z,24.47
2023-02-11T07:26:47.914Z,20.53
2023-02-11T07:29:16.163Z,25.90
2023-02-11T07:31:50.929Z,19.63
2023-02-11T07:34:25.874Z,24.07
2023-02-11T07:36:54.099Z,24.60
2023-02-11T07:39:28.862Z,22.77
2023-02-11T07:41:58.476Z,24.73
2023-02-11T07:44:32.886Z,26.13
2023-02-11T07:47:01.256Z,25.20
2023-02-11T07:49:35.900Z,27.13
2023-02-11T07:52:04.099Z,23.93
2023-02-11T07:54:38.942Z,27.03
2023-02-11T07:57:08.491Z,24.53
2023-02-11T07:59:43.904Z,25.23
2023-02-11T08:02:12.124Z,24.10
2023-02-11T08:04:46.909Z,25.40
2023-02-11T08:07:17.093Z,24.63
2023-02-11T08:09:58.900Z,27.73
2023-02-11T08:12:35.237Z,26.27
2023-02-11T08:15:09.931Z,26.83
2023-02-11T08:17:38.786Z,27.57
2023-02-11T08:20:14.931Z,26.13
2023-02-11T08:22:43.090Z,24.97
2023-02-11T08:25:17.942Z,27.37
2023-02-11T08:27:47.557Z,24.17
2023-02-11T08:30:24.160Z,27.13
2023-02-11T08:32:53.424Z,26.93
2023-02-11T08:35:27.908Z,30.17
2023-02-11T08:37:56.277Z,26.70
2023-02-11T08:40:31.936Z,27.27
2023-02-11T08:43:01.510Z,29.00
2023-02-11T08:45:36.008Z,31.27
2023-02-11T08:48:04.276Z,30.93
2023-02-11T08:50:38.918Z,29.57
2023-02-11T08:53:07.140Z,27.23
2023-02-11T08:55:41.917Z,30.70
2023-02-11T08:58:11.504Z,29.27
2023-02-11T09:00:46.966Z,29.63
2023-02-11T09:03:15.805Z,31.37
2023-02-11T09:05:50.986Z,29.70
2023-02-11T09:08:19.466Z,31.30
2023-02-11T09:11:00.955Z,27.73
2023-02-11T09:13:37.599Z,33.33
2023-02-11T09:16:13.993Z,31.80
2023-02-11T09:18:42.444Z,35.50
2023-02-11T09:21:18.947Z,34.23
2023-02-11T09:23:48.082Z,33.63
2023-02-11T09:26:24.948Z,34.40
2023-02-11T09:28:54.989Z,35.13
2023-02-11T09:31:32.377Z,32.77
2023-02-11T09:34:02.701Z,30.70
2023-02-11T09:36:39.975Z,39.47
2023-02-11T09:39:11.002Z,33.43
2023-02-11T09:42:19.002Z,39.13
2023-02-11T09:44:49.027Z,33.67
2023-02-11T09:47:32.960Z,38.00
2023-02-11T09:50:04.619Z,33.73
2023-02-11T09:52:45.983Z,36.07
2023-02-11T09:55:21.588Z,33.77
2023-02-11T09:57:57.085Z,36.50
2023-02-11T10:00:32.447Z,36.43
2023-02-11T10:03:35.017Z,40.67
2023-02-11T10:06:28.115Z,35.83
2023-02-11T10:09:05.843Z,34.27
2023-02-11T10:11:56.008Z,42.10
2023-02-11T10:14:38.892Z,32.63
2023-02-11T10:17:27.219Z,37.90
2023-02-11T10:20:15.845Z,36.77
2023-02-11T10:22:56.044Z,36.63
2023-02-11T10:25:27.005Z,35.07
2023-02-11T10:28:06.101Z,39.53
2023-02-11T10:30:44.060Z,35.10
2023-02-11T10:33:28.029Z,40.87
2023-02-11T10:35:56.228Z,36.20
2023-02-11T10:38:24.462Z,39.33
2023-02-11T10:40:59.001Z,37.57
2023-02-11T10:43:30.353Z,39.30
2023-02-11T10:46:07.069Z,35.30
2023-02-11T10:48:45.487Z,39.23
2023-02-11T10:51:29.051Z,36.27
2023-02-11T10:54:28.071Z,39.67
2023-02-11T10:57:01.084Z,38.83
2023-02-11T10:59:38.095Z,40.53
2023-02-11T11:02:19.391Z,39.20
2023-02-11T11:04:56.141Z,39.83
2023-02-11T11:07:27.250Z,42.27
2023-02-11T11:10:06.079Z,42.90
2023-02-11T11:12:52.079Z,41.50
2023-02-11T11:15:30.062Z,42.47
2023-02-11T11:18:21.863Z,39.90
2023-02-11T11:21:06.445Z,45.70
2023-02-11T11:23:37.829Z,37.23
2023-02-11T11:26:15.077Z,39.03
2023-02-11T11:28:52.184Z,40.43
2023-02-11T11:31:30.228Z,38.83
2023-02-11T11:34:00.545Z,39.03
2023-02-11T11:36:44.073Z,42.93
2023-02-11T11:39:26.041Z,41.33
2023-02-11T11:42:04.065Z,38.70
2023-02-11T11:44:34.144Z,38.13
2023-02-11T11:47:33.089Z,39.47
2023-02-11T11:50:24.715Z,42.23
2023-02-11T11:53:07.081Z,39.33
2023-02-11T11:55:41.802Z,44.67
2023-02-11T11:58:24.137Z,37.27
2023-02-11T12:01:03.092Z,38.20
2023-02-11T12:04:00.101Z,41.77
2023-02-11T12:06:39.111Z,36.57
2023-02-11T12:09:24.083Z,39.70
2023-02-11T12:12:26.707Z,35.83
2023-02-11T12:15:14.297Z,37.20
2023-02-11T12:17:56.616Z,39.83
2023-02-11T12:20:40.121Z,36.50
2023-02-11T12:23:27.747Z,35.07
2023-02-11T12:26:13.120Z,40.17
2023-02-11T12:28:48.577Z,38.17
2023-02-11T12:31:35.219Z,35.70
2023-02-11T12:34:23.823Z,36.47
2023-02-11T12:37:19.104Z,40.03
2023-02-11T12:39:59.359Z,39.00
2023-02-11T12:43:17.161Z,36.53
2023-02-11T12:46:18.256Z,37.53
2023-02-11T12:49:32.133Z,36.93
2023-02-11T12:52:10.863Z,35.30
2023-02-11T12:54:51.128Z,35.60
2023-02-11T12:57:23.549Z,40.27
2023-02-11T13:00:06.158Z,37.90
2023-02-11T13:02:43.489Z,37.23
2023-02-11T13:05:31.175Z,38.40
2023-02-11T13:08:05.722Z,34.23
2023-02-11T13:10:43.181Z,35.97
2023-02-11T13:13:23.357Z,37.37
2023-02-11T13:16:06.201Z,33.83
2023-02-11T13:18:45.869Z,34.60
2023-02-11T13:21:59.203Z,35.30
2023-02-11T13:24:42.211Z,34.53
2023-02-11T13:27:23.687Z,34.77
2023-02-11T13:30:34.206Z,35.87
2023-02-11T13:33:18.338Z,35.93
2023-02-11T13:35:58.187Z,35.87
2023-02-11T13:38:28.654Z,37.67
2023-02-11T13:41:11.205Z,34.43
2023-02-11T13:43:39.478Z,34.63
2023-02-11T13:46:16.280Z,36.23
2023-02-11T13:48:52.649Z,31.60
2023-02-11T13:51:44.174Z,37.73
2023-02-11T13:54:24.637Z,39.20
2023-02-11T13:57:24.215Z,38.00
2023-02-11T13:59:54.006Z,33.93
2023-02-11T14:02:50.298Z,37.47
2023-02-11T14:05:55.501Z,39.27
2023-02-11T14:08:51.205Z,37.87
2023-02-11T14:12:06.227Z,36.00
2023-02-11T14:14:36.184Z,33.60
2023-02-11T14:17:39.217Z,34.07
2023-02-11T14:20:44.129Z,37.37
2023-02-11T14:23:34.248Z,34.60
2023-02-11T14:26:25.146Z,38.40
2023-02-11T14:29:09.274Z,36.97
2023-02-11T14:31:43.350Z,38.23
2023-02-11T14:34:47.242Z,32.93
2023-02-11T14:37:23.741Z,37.53
2023-02-11T14:40:16.281Z,41.17
2023-02-11T14:42:44.842Z,39.53
2023-02-11T14:45:27.320Z,38.73
2023-02-11T14:48:03.970Z,39.87
2023-02-11T14:50:45.229Z,37.50
2023-02-11T14:53:18.045Z,41.43
2023-02-11T14:55:57.279Z,35.33
2023-02-11T14:58:27.457Z,38.57
2023-02-11T15:01:05.300Z,38.13
2023-02-11T15:03:36.224Z,41.87
2023-02-11T15:06:15.302Z,42.07
2023-02-11T15:08:46.982Z,38.77
2023-02-11T15:11:25.305Z,36.10
2023-02-11T15:14:14.285Z,40.00
2023-02-11T15:16:44.164Z,38.47
2023-02-11T15:19:34.262Z,39.33
2023-02-11T15:22:05.380Z,38.87
2023-02-11T15:24:42.267Z,36.40
2023-02-11T15:27:16.263Z,38.67
2023-02-11T15:29:53.305Z,39.17
2023-02-11T15:32:23.532Z,39.70
2023-02-11T15:35:00.315Z,38.00
2023-02-11T15:37:30.512Z,39.13
2023-02-11T15:40:17.306Z,44.60
2023-02-11T15:42:58.618Z,38.23
2023-02-11T15:45:38.288Z,41.50
2023-02-11T15:48:13.533Z,37.37
2023-02-11T15:50:50.545Z,38.17
2023-02-11T15:53:24.724Z,42.57
2023-02-11T15:56:03.306Z,40.17
2023-02-11T15:58:37.998Z,39.40
2023-02-11T16:01:14.327Z,38.83
2023-02-11T16:03:43.744Z,41.27
2023-02-11T16:06:26.340Z,39.33
2023-02-11T16:09:02.644Z,38.83
2023-02-11T16:11:46.276Z,40.03
2023-02-11T16:14:25.733Z,40.27
2023-02-11T16:17:04.350Z,37.83
2023-02-11T16:19:34.066Z,36.17
2023-02-11T16:22:15.336Z,40.23
2023-02-11T16:24:43.690Z,42.90
2023-02-11T16:27:29.346Z,43.50
2023-02-11T16:29:59.783Z,45.13
2023-02-11T16:32:36.348Z,41.23
2023-02-11T16:35:12.118Z,39.53
2023-02-11T16:37:47.507Z,37.97
2023-02-11T16:40:16.120Z,40.07
2023-02-11T16:42:50.339Z,46.63
2023-02-11T16:45:19.990Z,42.53
2023-02-11T16:47:54.362Z,38.60
2023-02-11T16:50:24.520Z,43.67
2023-02-11T16:53:00.392Z,42.87
2023-02-11T16:55:28.719Z,47.27
2023-02-11T16:58:03.380Z,48.13
2023-02-11T17:00:33.064Z,59.03
2023-02-11T17:03:07.355Z,50.57
2023-02-11T17:05:53.174Z,94.67
2023-02-11T17:08:29.356Z,92.00
2023-02-11T17:11:03.627Z,67.07
2023-02-11T17:13:46.378Z,57.77
2023-02-11T17:16:22.714Z,42.90
2023-02-11T17:18:57.378Z,44.90
2023-02-11T17:21:29.526Z,120.73
2023-02-11T17:24:04.400Z,47.17
2023-02-11T17:26:32.590Z,42.47
2023-02-11T17:29:07.450Z,45.33
2023-02-11T17:31:37.655Z,45.50
2023-02-11T17:34:12.396Z,40.03
2023-02-11T17:36:41.404Z,43.77
2023-02-11T17:39:16.415Z,44.07
2023-02-11T17:41:44.633Z,46.93
2023-02-11T17:44:20.434Z,46.33
2023-02-11T17:46:49.984Z,45.43
2023-02-11T17:49:24.396Z,50.17
2023-02-11T17:51:52.888Z,44.97
2023-02-11T17:54:28.397Z,44.50
2023-02-11T17:56:58.441Z,42.80
2023-02-11T17:59:38.407Z,47.07
2023-02-11T18:02:09.186Z,46.37
2023-02-11T18:04:43.454Z,44.83
2023-02-11T18:07:12.059Z,43.67
2023-02-11T18:09:47.430Z,48.47
2023-02-11T18:12:32.419Z,44.73
2023-02-11T18:15:00.590Z,45.17
2023-02-11T18:17:36.458Z,47.13
2023-02-11T18:20:05.436Z,42.97
2023-02-11T18:22:45.434Z,52.93
2023-02-11T18:25:16.213Z,44.87
2023-02-11T18:27:51.432Z,48.73
2023-02-11T18:30:22.633Z,52.50
2023-02-11T18:33:03.614Z,56.53
2023-02-11T18:35:31.771Z,53.17
2023-02-11T18:38:06.460Z,53.23
2023-02-11T18:40:35.504Z,51.43
2023-02-11T18:43:10.448Z,62.20
2023-02-11T18:45:38.627Z,66.23
2023-02-11T18:48:14.446Z,72.73
2023-02-11T18:50:44.574Z,94.73
2023-02-11T18:53:22.484Z,72.97
2023-02-11T18:55:51.199Z,49.70
2023-02-11T18:58:27.492Z,49.40
2023-02-11T19:00:55.713Z,45.40
2023-02-11T19:03:31.460Z,49.17
2023-02-11T19:05:59.580Z,50.07
2023-02-11T19:08:34.468Z,46.10
2023-02-11T19:11:23.449Z,52.00
2023-02-11T19:13:58.494Z,47.53
2023-02-11T19:16:26.683Z,46.20
2023-02-11T19:19:04.480Z,57.87
2023-02-11T19:21:32.984Z,53.87
2023-02-11T19:24:08.479Z,54.50
2023-02-11T19:26:37.820Z,53.70
2023-02-11T19:29:13.512Z,52.37
2023-02-11T19:31:42.080Z,52.60
2023-02-11T19:34:19.496Z,54.10
2023-02-11T19:36:48.980Z,59.57
2023-02-11T19:39:23.497Z,57.90
2023-02-11T19:41:51.665Z,57.67
2023-02-11T19:44:26.477Z,52.33
2023-02-11T19:46:54.834Z,54.37
2023-02-11T19:49:32.499Z,51.47
2023-02-11T19:52:00.792Z,53.03
2023-02-11T19:54:37.517Z,56.13
2023-02-11T19:57:05.954Z,52.00
2023-02-11T19:59:40.480Z,54.77
2023-02-11T20:02:08.895Z,49.70
2023-02-11T20:04:45.517Z,50.30
2023-02-11T20:07:16.518Z,48.40
2023-02-11T20:09:51.542Z,57.40
2023-02-11T20:12:26.520Z,55.93
2023-02-11T20:15:01.517Z,54.27
2023-02-11T20:17:29.785Z,57.47
2023-02-11T20:20:05.538Z,54.53
2023-02-11T20:22:33.861Z,55.50
2023-02-11T20:25:08.505Z,50.97
2023-02-11T20:27:36.631Z,52.37
2023-02-11T20:30:11.507Z,59.40
2023-02-11T20:32:39.699Z,51.50
2023-02-11T20:35:16.768Z,53.50
2023-02-11T20:37:44.987Z,54.50
2023-02-11T20:40:20.546Z,57.67
2023-02-11T20:42:48.765Z,56.70
2023-02-11T20:45:23.515Z,57.37
2023-02-11T20:47:51.649Z,53.93
2023-02-11T20:50:27.545Z,55.20
2023-02-11T20:52:55.692Z,53.47
2023-02-11T20:55:30.560Z,56.30
2023-02-11T20:57:59.135Z,60.00
2023-02-11T21:00:33.595Z,56.73
2023-02-11T21:03:01.832Z,53.90
2023-02-11T21:05:38.596Z,51.70
2023-02-11T21:08:06.876Z,54.00
2023-02-11T21:10:42.614Z,59.57
2023-02-11T21:13:18.086Z,55.90
2023-02-11T21:16:01.832Z,53.10
2023-02-11T21:18:30.103Z,56.90
2023-02-11T21:21:07.099Z,55.90
2023-02-11T21:23:35.831Z,56.20
2023-02-11T21:26:10.585Z,53.73
2023-02-11T21:28:41.048Z,57.07
2023-02-11T21:31:15.723Z,55.70
2023-02-11T21:33:43.935Z,55.03
2023-02-11T21:36:21.732Z,58.57
2023-02-11T21:38:50.093Z,56.33
2023-02-11T21:41:25.614Z,50.13
2023-02-11T21:43:54.190Z,55.57
2023-02-11T21:46:29.665Z,49.80
2023-02-11T21:49:00.342Z,53.70
2023-02-11T21:51:36.623Z,50.20
2023-02-11T21:54:05.403Z,49.23
2023-02-11T21:56:41.632Z,48.07
2023-02-11T21:59:12.603Z,50.50
2023-02-11T22:01:47.598Z,48.20
2023-02-11T22:04:25.668Z,48.10
2023-02-11T22:06:55.243Z,46.40
2023-02-11T22:09:29.625Z,48.90
2023-02-11T22:12:04.199Z,47.87
2023-02-11T22:14:46.647Z,45.27
2023-02-11T22:17:17.235Z,49.70
2023-02-11T22:19:51.666Z,52.37
2023-02-11T22:22:21.295Z,51.03
2023-02-11T22:24:55.645Z,49.23
2023-02-11T22:27:24.023Z,48.27
2023-02-11T22:29:58.648Z,50.30
2023-02-11T22:32:26.805Z,44.97
2023-02-11T22:35:01.683Z,45.67
2023-02-11T22:37:31.263Z,46.67
2023-02-11T22:40:05.667Z,54.97
2023-02-11T22:42:33.843Z,54.80
2023-02-11T22:45:09.684Z,51.63
2023-02-11T22:47:38.911Z,52.70
2023-02-11T22:50:14.730Z,49.07
2023-02-11T22:52:44.296Z,44.60
2023-02-11T22:55:18.673Z,47.43
2023-02-11T22:57:47.243Z,48.43
2023-02-11T23:00:23.649Z,46.47
2023-02-11T23:02:51.908Z,46.67
2023-02-11T23:05:26.651Z,46.97
2023-02-11T23:07:56.283Z,45.83
2023-02-11T23:10:30.748Z,46.33
2023-02-11T23:13:05.876Z,46.87
2023-02-11T23:15:40.757Z,46.50
2023-02-11T23:18:10.055Z,51.77
2023-02-11T23:20:46.662Z,48.83
2023-02-11T23:23:16.203Z,46.93
2023-02-11T23:25:51.682Z,43.73
2023-02-11T23:28:19.974Z,51.77
2023-02-11T23:30:54.752Z,46.03
2023-02-11T23:33:23.346Z,45.97
2023-02-11T23:35:57.714Z,45.13
2023-02-11T23:38:27.318Z,45.47
2023-02-11T23:41:01.709Z,41.00
2023-02-11T23:43:29.919Z,41.90
2023-02-11T23:46:04.850Z,43.37
2023-02-11T23:48:33.817Z,44.63
2023-02-11T23:51:08.715Z,43.63
2023-02-11T23:53:38.662Z,42.17
2023-02-11T23:56:17.740Z,43.43
2023-02-11T23:58:48.272Z,42.03
